Time;durP1;ratioP1;P1;durP2;ratioP2;P2;SDS_P1;SDS_P2;PMS_P1;PMS_P2;Temp;Humidity;BMP_temperature;BMP_pressure;BME280_temperature;BME280_humidity;BME280_pressure;Samples;Min_cycle;Max_cycle;Signal;HPM_P1;HPM_P2
2022/06/03 00:01:07;;;;;;;3.70;2.33;;;8.50;99.90;;;;;;5101738;28;20569;-67
2022/06/03 00:03:51;;;;;;;3.67;2.35;;;8.50;99.90;;;;;;5102724;28;20503;-68
2022/06/03 00:06:40;;;;;;;3.65;2.05;;;8.50;99.90;;;;;;5103513;28;20115;-64
2022/06/03 00:09:24;;;;;;;6.78;2.20;;;8.50;99.90;;;;;;5103494;28;20115;-63
2022/06/03 00:12:08;;;;;;;4.00;2.17;;;8.50;99.90;;;;;;5099300;28;20040;-70
2022/06/03 00:15:03;;;;;;;3.47;2.00;;;8.40;99.90;;;;;;5097040;28;20067;-64
2022/06/03 00:18:06;;;;;;;3.88;2.10;;;8.40;99.90;;;;;;5078783;28;20115;-64
2022/06/03 00:20:45;;;;;;;2.03;1.80;;;8.40;99.90;;;;;;5067104;28;20430;-64
2022/06/03 00:23:25;;;;;;;2.42;2.00;;;8.40;99.90;;;;;;5086383;28;20037;-65
2022/06/03 00:26:11;;;;;;;3.15;1.92;;;8.40;99.90;;;;;;5088983;28;20040;-65
2022/06/03 00:29:00;;;;;;;6.93;2.30;;;8.40;99.90;;;;;;5089236;28;20035;-65
2022/06/03 00:32:01;;;;;;;3.22;1.92;;;8.40;99.90;;;;;;5088358;28;20101;-65
2022/06/03 00:34:51;;;;;;;2.15;1.70;;;8.40;99.90;;;;;;5089388;28;20043;-65
2022/06/03 00:37:44;;;;;;;2.20;1.80;;;8.40;99.90;;;;;;5089037;28;20524;-64
2022/06/03 00:40:29;;;;;;;2.92;1.80;;;8.30;99.90;;;;;;5069674;28;20045;-65
2022/06/03 00:43:22;;;;;;;3.53;2.30;;;8.30;99.90;;;;;;5071540;28;20100;-64
2022/06/03 00:45:53;;;;;;;2.53;1.92;;;8.20;99.90;;;;;;5088593;28;20048;-64
2022/06/03 00:48:56;;;;;;;2.95;2.22;;;8.20;99.90;;;;;;5088401;28;20036;-65
2022/06/03 00:52:14;;;;;;;3.78;2.03;;;8.20;99.90;;;;;;5090987;28;20127;-64
2022/06/03 00:57:22;;;;;;;6.15;2.28;;;8.20;99.90;;;;;;5048390;28;20041;-64
2022/06/03 01:00:02;;;;;;;4.15;2.50;;;8.20;99.90;;;;;;5030799;28;20036;-68
2022/06/03 01:02:55;;;;;;;2.80;2.17;;;8.10;99.90;;;;;;5046237;28;20688;-63
2022/06/03 01:06:02;;;;;;;2.55;2.20;;;8.00;99.90;;;;;;5049697;28;20044;-63
2022/06/03 01:09:09;;;;;;;2.97;2.17;;;7.90;99.90;;;;;;5034340;28;20033;-65
2022/06/03 01:12:06;;;;;;;5.93;2.30;;;8.00;99.90;;;;;;5014358;28;20056;-68
2022/06/03 01:14:58;;;;;;;4.25;2.15;;;7.80;99.90;;;;;;5048614;28;20091;-68
2022/06/03 01:17:36;;;;;;;3.95;2.50;;;7.80;99.90;;;;;;5047522;28;20063;-68
2022/06/03 01:20:41;;;;;;;4.03;2.20;;;7.80;99.90;;;;;;5048391;28;20041;-66
2022/06/03 01:23:49;;;;;;;3.65;2.38;;;7.80;99.90;;;;;;5016208;28;20045;-64
2022/06/03 01:26:52;;;;;;;4.30;2.90;;;7.80;99.90;;;;;;5046794;28;20405;-64
2022/06/03 01:29:57;;;;;;;3.85;2.47;;;7.80;99.90;;;;;;5029007;28;20041;-64
2022/06/03 01:33:01;;;;;;;3.50;2.20;;;7.70;99.90;;;;;;5046802;28;20043;-64
2022/06/03 01:36:11;;;;;;;5.00;2.10;;;7.70;99.90;;;;;;5047426;28;20049;-64
2022/06/03 01:38:36;;;;;;;3.00;2.30;;;7.70;99.90;;;;;;5027981;28;20084;-64
2022/06/03 01:41:13;;;;;;;;;;;7.60;99.90;;;;;;5046984;28;20040;-64
2022/06/03 01:44:22;;;;;;;4.72;2.10;;;7.60;99.90;;;;;;5046957;28;19970;-66
2022/06/03 01:47:37;;;;;;;4.07;2.15;;;7.60;99.90;;;;;;5047715;28;20689;-64
2022/06/03 01:50:27;;;;;;;2.22;1.80;;;7.60;99.90;;;;;;5048248;28;20045;-64
2022/06/03 01:53:14;;;;;;;2.72;2.35;;;7.60;99.90;;;;;;5048368;28;20696;-64
2022/06/03 01:56:26;;;;;;;2.53;2.10;;;7.60;99.90;;;;;;5043461;28;20045;-64
2022/06/03 01:59:03;;;;;;;2.92;1.90;;;7.60;99.90;;;;;;5028021;28;20037;-64
2022/06/03 02:02:23;;;;;;;2.80;1.92;;;7.60;99.90;;;;;;5027992;28;20041;-65
2022/06/03 02:05:08;;;;;;;4.10;2.22;;;7.50;99.90;;;;;;4948096;28;20039;-65
2022/06/03 02:07:45;;;;;;;2.15;1.90;;;7.40;99.90;;;;;;5040162;28;20148;-65
2022/06/03 02:10:33;;;;;;;2.35;2.10;;;7.40;99.90;;;;;;5048029;28;20076;-65
2022/06/03 02:13:22;;;;;;;4.93;2.40;;;7.50;99.90;;;;;;5047675;28;20075;-68
2022/06/03 02:16:12;;;;;;;2.85;2.22;;;7.50;99.90;;;;;;5047661;28;20453;-65
2022/06/03 02:18:58;;;;;;;2.75;2.28;;;7.50;99.90;;;;;;5042813;28;20087;-64
2022/06/03 02:21:48;;;;;;;2.55;2.20;;;7.50;99.90;;;;;;5045039;28;20048;-64
2022/06/03 02:24:32;;;;;;;3.50;1.90;;;7.50;99.90;;;;;;5040047;28;20425;-65
2022/06/03 02:27:40;;;;;;;4.18;2.03;;;7.40;99.90;;;;;;5044176;28;20151;-64
2022/06/03 02:30:26;;;;;;;5.73;2.57;;;7.50;99.90;;;;;;5046488;28;20752;-65
2022/06/03 02:32:54;;;;;;;4.38;2.30;;;7.50;99.90;;;;;;5029070;28;20263;-64
2022/06/03 02:35:29;;;;;;;2.17;1.98;;;7.50;99.90;;;;;;5047114;28;20770;-65
2022/06/03 02:38:11;;;;;;;2.55;1.95;;;7.40;99.90;;;;;;5046800;28;20539;-65
2022/06/03 02:40:55;;;;;;;3.28;1.98;;;7.40;99.90;;;;;;5046515;28;20124;-65
2022/06/03 02:43:39;;;;;;;2.53;2.10;;;7.40;99.90;;;;;;5047094;28;20473;-65
2022/06/03 02:46:10;;;;;;;2.30;2.10;;;7.30;99.90;;;;;;5046488;28;20048;-65
2022/06/03 02:48:51;;;;;;;3.88;2.70;;;7.30;99.90;;;;;;5046602;28;20390;-64
2022/06/03 02:51:44;;;;;;;3.58;2.20;;;7.30;99.90;;;;;;5046704;28;20036;-65
2022/06/03 02:54:18;;;;;;;3.25;2.03;;;7.30;99.90;;;;;;5045975;28;20091;-65
2022/06/03 02:57:02;;;;;;;2.50;2.10;;;7.40;99.90;;;;;;5045709;28;20040;-65
2022/06/03 03:00:00;;;;;;;7.18;1.95;;;7.30;99.90;;;;;;5046268;28;20043;-65
2022/06/03 03:02:41;;;;;;;2.58;1.90;;;7.40;99.90;;;;;;5025416;28;20140;-65
2022/06/03 03:05:32;;;;;;;4.82;2.15;;;7.40;99.90;;;;;;5045559;28;20045;-64
2022/06/03 03:08:07;;;;;;;2.88;2.08;;;7.40;99.90;;;;;;5046643;28;20041;-64
2022/06/03 03:10:53;;;;;;;3.65;2.30;;;7.40;99.90;;;;;;5045776;28;20037;-65
2022/06/03 03:13:49;;;;;;;3.47;2.60;;;7.30;99.90;;;;;;5046018;28;20041;-65
2022/06/03 03:16:36;;;;;;;3.53;2.25;;;7.30;99.90;;;;;;5046913;28;20464;-64
2022/06/03 03:19:14;;;;;;;3.92;2.05;;;7.30;99.90;;;;;;5046157;28;20092;-64
2022/06/03 03:22:02;;;;;;;4.22;2.17;;;7.20;99.90;;;;;;5045992;28;20041;-64
2022/06/03 03:24:49;;;;;;;5.80;2.85;;;7.10;99.90;;;;;;5046250;28;20095;-63
2022/06/03 03:27:29;;;;;;;3.75;2.63;;;7.20;99.90;;;;;;5045525;28;20048;-64
2022/06/03 03:30:23;;;;;;;2.28;2.03;;;7.20;99.90;;;;;;5045942;28;20051;-65
2022/06/03 03:33:05;;;;;;;2.75;2.10;;;7.30;99.90;;;;;;5045862;28;20501;-64
2022/06/03 03:36:04;;;;;;;2.85;2.03;;;7.40;99.90;;;;;;5026273;28;20049;-64
2022/06/03 03:38:47;;;;;;;7.28;2.50;;;7.30;99.90;;;;;;5046384;28;20050;-65
2022/06/03 03:41:44;;;;;;;3.63;2.17;;;7.50;99.90;;;;;;5046531;28;20041;-64
2022/06/03 03:44:21;;;;;;;4.28;2.47;;;7.60;99.90;;;;;;5045544;28;20122;-65
2022/06/03 03:46:59;;;;;;;5.13;2.30;;;7.70;99.90;;;;;;5045552;28;20594;-64
2022/06/03 03:49:31;;;;;;;3.42;2.40;;;7.80;99.90;;;;;;5046024;28;20059;-63
2022/06/03 03:52:12;;;;;;;3.90;2.03;;;8.00;99.90;;;;;;5045975;28;20460;-64
2022/06/03 03:54:55;;;;;;;7.20;2.10;;;8.10;99.90;;;;;;5049013;28;20049;-65
2022/06/03 03:57:43;;;;;;;2.78;2.10;;;8.20;99.90;;;;;;5049805;28;20083;-64
2022/06/03 04:00:21;;;;;;;4.22;2.38;;;8.30;99.90;;;;;;5049776;28;20115;-64
2022/06/03 04:03:20;;;;;;;4.22;2.20;;;8.30;99.90;;;;;;5030193;28;20052;-65
2022/06/03 04:05:48;;;;;;;5.07;2.13;;;8.40;99.90;;;;;;5049012;28;20087;-65
2022/06/03 04:08:38;;;;;;;3.22;1.88;;;8.50;99.90;;;;;;5049470;28;20055;-65
2022/06/03 04:11:41;;;;;;;2.55;1.95;;;8.60;99.90;;;;;;5045697;28;20068;-64
2022/06/03 04:14:53;;;;;;;2.72;2.35;;;8.60;99.90;;;;;;5034736;28;20040;-64
2022/06/03 04:17:36;;;;;;;3.83;2.10;;;8.70;99.90;;;;;;4995469;28;20092;-64
2022/06/03 04:20:14;;;;;;;10.25;2.40;;;8.80;99.90;;;;;;5049432;28;20047;-62
2022/06/03 04:22:51;;;;;;;3.67;1.98;;;8.90;99.90;;;;;;5049778;28;20825;-63
2022/06/03 04:25:50;;;;;;;2.25;1.80;;;9.20;99.90;;;;;;5048710;28;20041;-63
2022/06/03 04:28:42;;;;;;;6.40;2.00;;;9.40;99.90;;;;;;5047865;28;20689;-63
2022/06/03 04:31:35;;;;;;;2.30;1.70;;;10.80;99.90;;;;;;5047921;28;20034;-63
2022/06/03 04:34:23;;;;;;;2.17;1.55;;;12.40;99.90;;;;;;5030216;28;20077;-63
2022/06/03 04:37:42;;;;;;;5.32;1.55;;;12.60;99.90;;;;;;5048159;28;20041;-63
2022/06/03 04:40:26;;;;;;;4.07;1.77;;;12.20;99.90;;;;;;4947818;28;20857;-63
2022/06/03 04:43:11;;;;;;;5.80;1.70;;;11.60;99.90;;;;;;5040042;28;20098;-63
2022/06/03 04:46:07;;;;;;;3.83;2.00;;;11.40;99.90;;;;;;5046324;28;20068;-65
2022/06/03 04:49:40;;;;;;;1.67;1.45;;;11.00;99.90;;;;;;5044620;28;20037;-63
2022/06/03 04:53:00;;;;;;;2.15;1.80;;;11.00;99.90;;;;;;4961259;28;20507;-64
2022/06/03 04:55:45;;;;;;;4.13;2.10;;;10.90;99.90;;;;;;5047806;28;20055;-67
2022/06/03 04:58:48;;;;;;;5.05;2.42;;;11.00;99.90;;;;;;5047738;28;20049;-66
2022/06/03 05:01:32;;;;;;;3.92;2.40;;;11.00;99.90;;;;;;5046664;28;20037;-65
2022/06/03 05:04:17;;;;;;;7.20;2.08;;;11.10;99.90;;;;;;5047801;28;20033;-65
2022/06/03 05:06:52;;;;;;;3.78;3.13;;;11.30;99.90;;;;;;5041529;28;20056;-66
2022/06/03 05:09:23;;;;;;;6.78;3.10;;;11.60;99.90;;;;;;5047681;28;20044;-68
2022/06/03 05:12:21;;;;;;;3.33;2.22;;;11.70;99.90;;;;;;5047631;28;20559;-66
2022/06/03 05:14:52;;;;;;;3.35;2.30;;;11.70;99.90;;;;;;5044660;28;20514;-66
2022/06/03 05:17:23;;;;;;;3.58;2.85;;;11.90;99.90;;;;;;5047920;28;20044;-65
2022/06/03 05:20:38;;;;;;;4.65;2.88;;;12.20;99.90;;;;;;5047380;28;20500;-64
2022/06/03 05:23:33;;;;;;;4.28;2.38;;;12.50;99.90;;;;;;5047385;28;20132;-64
2022/06/03 05:26:21;;;;;;;4.50;3.10;;;12.80;99.90;;;;;;5040105;28;20139;-64
2022/06/03 05:29:06;;;;;;;5.25;3.22;;;13.20;99.90;;;;;;5047937;28;20044;-62
2022/06/03 05:32:08;;;;;;;6.55;2.95;;;13.60;99.90;;;;;;5040441;28;20128;-64
2022/06/03 05:34:34;;;;;;;5.65;3.55;;;13.90;99.60;;;;;;5047226;28;20037;-66
2022/06/03 05:37:02;;;;;;;;;;;13.70;98.70;;;;;;5048253;28;20057;-65
2022/06/03 05:40:05;;;;;;;4.30;2.60;;;13.60;98.40;;;;;;5046181;28;19951;-64
2022/06/03 05:43:08;;;;;;;4.82;2.70;;;14.00;99.30;;;;;;5044373;28;20033;-64
2022/06/03 05:46:13;;;;;;;4.00;2.83;;;14.00;98.90;;;;;;5046879;28;20041;-64
2022/06/03 05:49:03;;;;;;;3.78;2.90;;;14.10;99.30;;;;;;5000103;28;20543;-64
2022/06/03 05:51:35;;;;;;;2.85;2.55;;;14.20;98.80;;;;;;5038863;28;20041;-64
2022/06/03 05:54:29;;;;;;;10.45;2.25;;;14.20;98.20;;;;;;5042038;28;20033;-67
2022/06/03 05:57:13;;;;;;;2.85;2.50;;;14.10;97.80;;;;;;5042462;28;20528;-62
2022/06/03 06:00:13;;;;;;;4.10;2.78;;;14.10;98.20;;;;;;5042957;28;20041;-62
2022/06/03 06:02:57;;;;;;;5.25;2.53;;;14.20;97.00;;;;;;5045119;28;20037;-63
2022/06/03 06:05:47;;;;;;;6.97;2.40;;;14.30;97.80;;;;;;5044279;28;20509;-63
2022/06/03 06:08:29;;;;;;;3.92;2.30;;;14.40;97.30;;;;;;5029143;28;20120;-62
2022/06/03 06:11:26;;;;;;;3.25;2.47;;;14.40;97.70;;;;;;5046266;28;20397;-63
2022/06/03 06:14:10;;;;;;;3.67;2.95;;;14.50;97.60;;;;;;5038788;28;20116;-63
2022/06/03 06:16:42;;;;;;;3.25;2.58;;;14.70;96.80;;;;;;5039623;28;20045;-63
2022/06/03 06:19:37;;;;;;;4.18;2.13;;;14.80;97.10;;;;;;5047062;28;20106;-66
2022/06/03 06:22:09;;;;;;;5.88;2.72;;;14.90;96.30;;;;;;5046640;28;20123;-64
2022/06/03 06:24:35;;;;;;;3.50;2.40;;;15.00;96.00;;;;;;5046468;28;20117;-65
2022/06/03 06:27:19;;;;;;;;;;;15.00;96.40;;;;;;5044088;28;20160;-64
2022/06/03 06:29:54;;;;;;;4.93;1.80;;;15.00;96.00;;;;;;5039699;28;20671;-67
2022/06/03 06:32:50;;;;;;;2.15;1.85;;;15.20;96.00;;;;;;5037525;28;20040;-64
2022/06/03 06:36:01;;;;;;;2.20;1.98;;;15.30;96.20;;;;;;5044284;28;20047;-65
2022/06/03 06:38:53;;;;;;;2.63;2.25;;;15.50;95.40;;;;;;5034278;28;20436;-65
2022/06/03 06:41:28;;;;;;;3.05;2.20;;;15.60;95.70;;;;;;5045797;28;20063;-66
2022/06/03 06:44:37;;;;;;;4.40;2.13;;;15.70;94.80;;;;;;5046247;28;20041;-67
2022/06/03 06:47:17;;;;;;;5.25;2.42;;;15.90;95.30;;;;;;4949725;28;20078;-63
2022/06/03 06:50:11;;;;;;;4.28;2.50;;;16.30;93.90;;;;;;5041001;28;20049;-66
2022/06/03 06:52:44;;;;;;;2.72;2.10;;;17.20;93.40;;;;;;5046492;28;20227;-66
2022/06/03 06:55:15;;;;;;;7.60;2.00;;;18.30;91.30;;;;;;5044629;28;20045;-64
2022/06/03 06:58:00;;;;;;;2.90;1.52;;;18.30;90.60;;;;;;5042149;28;20041;-64
2022/06/03 07:00:38;;;;;;;3.95;1.70;;;17.80;91.50;;;;;;5041734;28;20674;-64
2022/06/03 07:03:20;;;;;;;3.75;1.70;;;17.50;92.20;;;;;;5043693;28;20044;-64
2022/06/03 07:06:00;;;;;;;3.53;1.60;;;17.70;91.90;;;;;;5045822;28;20544;-64
2022/06/03 07:08:33;;;;;;;2.67;1.23;;;17.90;90.50;;;;;;5023101;28;20063;-64
2022/06/03 07:11:07;;;;;;;4.03;1.70;;;17.90;90.30;;;;;;5039183;28;20489;-66
2022/06/03 07:13:42;;;;;;;1.38;1.23;;;18.00;90.80;;;;;;5039343;28;20041;-65
2022/06/03 07:22:20;;;;;;;4.05;1.45;;;20.20;86.80;;;;;;5028956;28;20037;-66
2022/06/03 07:24:52;;;;;;;2.83;1.40;;;19.90;86.50;;;;;;5046248;28;20047;-66
2022/06/03 07:27:43;;;;;;;2.00;1.50;;;19.60;84.30;;;;;;5045573;28;20043;-66
2022/06/03 07:30:30;;;;;;;4.03;1.63;;;19.20;87.40;;;;;;5002887;28;20132;-64
2022/06/03 07:33:09;;;;;;;5.22;1.75;;;18.70;90.70;;;;;;5049618;28;20049;-65
2022/06/03 07:36:01;;;;;;;1.73;1.52;;;18.10;91.10;;;;;;5048416;28;20041;-66
2022/06/03 07:38:39;;;;;;;4.45;1.40;;;17.90;92.20;;;;;;5049698;28;20087;-65
2022/06/03 07:41:25;;;;;;;4.85;1.70;;;17.70;92.30;;;;;;5050028;28;20091;-66
2022/06/03 07:43:58;;;;;;;3.20;1.85;;;17.60;91.90;;;;;;5050108;28;20044;-65
2022/06/03 07:46:37;;;;;;;6.90;2.17;;;17.40;92.70;;;;;;5050366;28;20057;-65
2022/06/03 07:49:04;;;;;;;3.50;1.92;;;17.30;94.00;;;;;;5050326;28;20124;-64
2022/06/03 07:51:38;;;;;;;2.35;1.73;;;17.10;93.50;;;;;;5049571;28;20120;-64
2022/06/03 07:54:21;;;;;;;2.50;1.67;;;17.20;92.80;;;;;;5050003;28;20124;-65
2022/06/03 07:56:47;;;;;;;2.13;1.58;;;17.50;92.50;;;;;;5049812;28;20049;-64
2022/06/03 07:59:15;;;;;;;;;;;17.50;92.40;;;;;;5049418;28;20483;-64
2022/06/03 08:01:43;;;;;;;1.83;1.20;;;17.50;92.20;;;;;;5045953;28;19956;-69
2022/06/03 08:04:29;;;;;;;2.17;1.25;;;17.50;91.50;;;;;;5048019;28;20154;-71
2022/06/03 08:12:34;;;;;;;4.38;1.40;;;18.50;91.00;;;;;;5048410;28;20037;-65
2022/06/03 08:15:13;;;;;;;3.50;1.48;;;18.90;90.00;;;;;;5038588;28;20607;-65
2022/06/03 08:17:40;;;;;;;9.52;1.50;;;19.10;88.50;;;;;;5030318;28;20056;-66
2022/06/03 08:20:09;;;;;;;2.25;1.30;;;19.00;87.10;;;;;;5049844;28;20045;-64
2022/06/03 08:22:38;;;;;;;1.63;1.15;;;19.00;89.10;;;;;;5049873;28;20730;-64
2022/06/03 08:25:08;;;;;;;2.53;1.17;;;19.10;90.70;;;;;;5050159;28;20037;-65
2022/06/03 08:27:37;;;;;;;2.25;1.23;;;18.90;89.40;;;;;;5050004;28;20047;-65
2022/06/03 08:30:08;;;;;;;1.63;1.17;;;19.20;89.70;;;;;;5050547;28;20116;-65
2022/06/03 08:32:39;;;;;;;3.15;0.93;;;19.20;88.20;;;;;;5049043;28;20068;-66
2022/06/03 08:35:13;;;;;;;1.95;1.10;;;19.70;86.40;;;;;;5050710;28;20037;-66
2022/06/03 08:37:55;;;;;;;5.22;1.23;;;20.40;84.00;;;;;;5050428;28;20040;-65
2022/06/03 08:40:35;;;;;;;1.30;1.20;;;20.80;84.90;;;;;;5032262;28;21105;-64
2022/06/03 08:43:12;;;;;;;1.60;1.17;;;21.20;82.00;;;;;;5030144;28;20045;-65
2022/06/03 08:45:54;;;;;;;2.00;1.08;;;22.00;77.00;;;;;;5049295;28;20072;-65
2022/06/03 08:48:25;;;;;;;1.58;1.30;;;23.20;75.80;;;;;;5031530;28;20037;-65
2022/06/03 08:50:57;;;;;;;3.08;0.90;;;23.50;68.60;;;;;;5049588;28;20063;-66
2022/06/03 08:53:40;;;;;;;2.00;0.93;;;23.70;69.80;;;;;;5049417;28;20553;-66
2022/06/03 08:56:17;;;;;;;1.10;1.00;;;22.70;70.90;;;;;;5049693;28;20408;-66
2022/06/03 08:58:56;;;;;;;7.72;1.75;;;21.50;79.40;;;;;;5049274;28;20114;-66
2022/06/03 09:01:34;;;;;;;1.60;1.02;;;20.50;78.90;;;;;;5048659;28;20459;-65
2022/06/03 09:04:22;;;;;;;1.73;1.20;;;19.80;78.80;;;;;;5048839;28;20040;-65
2022/06/03 09:07:11;;;;;;;3.45;1.75;;;19.70;80.40;;;;;;5049062;28;20045;-65
2022/06/03 09:10:01;;;;;;;2.88;1.13;;;19.80;81.10;;;;;;5049186;28;20121;-65
2022/06/03 09:12:29;;;;;;;1.98;1.40;;;19.50;81.10;;;;;;5048948;28;20033;-65
2022/06/03 09:15:11;;;;;;;3.72;0.93;;;19.50;81.50;;;;;;5048683;28;20064;-65
2022/06/03 09:17:48;;;;;;;1.05;0.73;;;19.50;80.90;;;;;;5048324;28;20057;-65
2022/06/03 09:20:17;;;;;;;2.42;1.10;;;19.80;83.70;;;;;;5043458;28;20041;-66
2022/06/03 09:22:44;;;;;;;5.22;1.45;;;19.60;83.10;;;;;;5046460;28;20497;-65
2022/06/03 09:25:13;;;;;;;4.50;1.42;;;19.60;84.30;;;;;;5045764;28;20503;-65
2022/06/03 09:27:40;;;;;;;1.98;1.00;;;19.50;86.10;;;;;;5048113;28;20053;-64
2022/06/03 09:30:08;;;;;;;1.50;1.17;;;19.50;83.70;;;;;;5048182;28;20055;-64
2022/06/03 09:32:49;;;;;;;2.80;1.00;;;19.30;82.30;;;;;;5047125;28;20048;-65
2022/06/03 09:35:26;;;;;;;4.15;1.08;;;19.30;81.40;;;;;;5048064;28;20049;-66
2022/06/03 09:37:58;;;;;;;1.80;1.02;;;19.30;80.80;;;;;;5048157;28;20532;-66
2022/06/03 09:40:45;;;;;;;1.10;0.90;;;19.20;80.00;;;;;;5039304;28;20041;-65
2022/06/03 09:43:13;;;;;;;1.58;0.98;;;19.50;84.90;;;;;;5048190;28;20043;-65
2022/06/03 09:45:39;;;;;;;5.13;1.10;;;19.40;83.70;;;;;;5047899;28;20198;-66
2022/06/03 09:48:06;;;;;;;1.15;1.02;;;19.50;81.30;;;;;;5048365;28;20048;-67
2022/06/03 09:50:32;;;;;;;4.47;1.65;;;19.40;81.30;;;;;;5046713;28;20059;-66
2022/06/03 09:53:01;;;;;;;1.63;1.10;;;19.40;81.40;;;;;;5047961;28;20036;-64
2022/06/03 09:55:36;;;;;;;2.60;0.80;;;19.40;84.20;;;;;;5047665;28;20041;-63
2022/06/03 09:58:04;;;;;;;2.05;1.40;;;19.60;85.20;;;;;;5047185;28;20037;-64
2022/06/03 10:00:41;;;;;;;1.63;1.20;;;19.80;82.80;;;;;;5045319;28;20429;-66
2022/06/03 10:03:07;;;;;;;2.53;1.23;;;19.90;83.30;;;;;;5046690;28;20723;-65
2022/06/03 10:05:34;;;;;;;7.88;1.20;;;19.90;82.00;;;;;;5044042;28;20070;-67
2022/06/03 10:08:03;;;;;;;1.83;1.17;;;19.80;85.00;;;;;;5046442;28;20037;-63
2022/06/03 10:13:14;;;;;;;2.97;1.48;;;19.80;84.90;;;;;;5047206;28;20671;-66
2022/06/03 10:15:44;;;;;;;1.48;1.30;;;19.60;83.80;;;;;;5046133;28;20036;-63
2022/06/03 10:18:34;;;;;;;2.28;1.30;;;19.80;85.20;;;;;;5045063;28;20123;-66
2022/06/03 10:21:19;;;;;;;2.40;1.20;;;19.90;85.20;;;;;;5045852;28;20048;-65
2022/06/03 10:24:06;;;;;;;1.60;1.08;;;20.00;84.00;;;;;;5045690;28;20037;-66
2022/06/03 10:26:53;;;;;;;4.95;1.50;;;20.20;87.50;;;;;;5047047;28;20072;-66
2022/06/03 10:29:22;;;;;;;8.30;1.70;;;20.20;79.20;;;;;;5047095;28;20551;-66
2022/06/03 10:32:07;;;;;;;5.25;1.58;;;19.80;85.30;;;;;;5045474;28;20499;-64
2022/06/03 10:34:39;;;;;;;3.78;1.70;;;19.80;83.80;;;;;;5028813;28;20463;-64
2022/06/03 10:37:09;;;;;;;3.15;1.50;;;19.60;86.90;;;;;;5046290;28;20048;-63
2022/06/03 10:39:35;;;;;;;5.60;1.42;;;19.70;87.70;;;;;;5048062;28;20103;-65
2022/06/03 10:42:01;;;;;;;3.65;1.50;;;20.00;88.10;;;;;;5046331;28;20505;-70
2022/06/03 10:44:34;;;;;;;2.50;1.40;;;20.10;90.30;;;;;;5040794;28;20949;-69
2022/06/03 10:47:02;;;;;;;1.80;1.30;;;20.00;89.20;;;;;;5046452;28;20061;-68
2022/06/03 10:49:31;;;;;;;2.53;1.30;;;20.00;88.90;;;;;;5045985;28;20218;-64
2022/06/03 11:03:20;;;;;;;2.45;1.40;;;19.80;88.30;;;;;;5043244;28;20049;-65
2022/06/03 11:05:47;;;;;;;2.35;1.48;;;19.90;89.70;;;;;;5041096;28;20041;-63
2022/06/03 11:08:13;;;;;;;4.38;1.20;;;19.90;86.90;;;;;;5045915;28;20447;-66
2022/06/03 11:10:46;;;;;;;3.08;1.40;;;20.10;84.70;;;;;;5046050;28;20072;-64
2022/06/03 11:13:15;;;;;;;3.00;1.60;;;20.20;87.80;;;;;;5046666;28;20044;-64
2022/06/03 11:15:42;;;;;;;1.60;1.40;;;20.30;85.80;;;;;;5047010;28;20055;-64
2022/06/03 11:18:16;;;;;;;2.30;1.30;;;20.40;87.50;;;;;;5046334;28;20095;-63
2022/06/03 11:20:44;;;;;;;1.58;1.27;;;20.50;85.20;;;;;;5026565;28;20041;-65
2022/06/03 11:23:11;;;;;;;5.78;1.70;;;20.60;84.90;;;;;;5046081;28;20063;-65
2022/06/03 11:25:47;;;;;;;5.43;1.40;;;20.40;87.40;;;;;;5045861;28;20075;-62
2022/06/03 11:28:39;;;;;;;2.40;1.30;;;20.20;87.80;;;;;;5043960;28;20090;-64
2022/06/03 11:31:18;;;;;;;3.15;1.30;;;20.20;85.10;;;;;;5032147;28;20063;-64
2022/06/03 11:33:56;;;;;;;;;;;20.10;86.20;;;;;;5040088;28;20106;-63
2022/06/03 11:36:35;;;;;;;3.13;1.83;;;20.10;84.60;;;;;;5046102;28;19928;-64
2022/06/03 11:39:07;;;;;;;1.80;1.50;;;20.10;87.70;;;;;;5045098;28;20044;-63
2022/06/03 11:41:41;;;;;;;1.95;1.10;;;20.10;85.00;;;;;;5045921;28;20037;-63
2022/06/03 11:44:09;;;;;;;6.22;1.40;;;20.10;85.80;;;;;;5029073;28;20501;-64
2022/06/03 11:46:54;;;;;;;2.83;1.08;;;20.20;85.90;;;;;;5045958;28;20069;-63
2022/06/03 11:49:21;;;;;;;2.00;1.05;;;20.20;86.10;;;;;;5046679;28;20352;-63
2022/06/03 11:51:48;;;;;;;2.15;1.23;;;20.50;86.50;;;;;;5045563;28;20033;-63
2022/06/03 11:54:17;;;;;;;3.90;1.33;;;20.90;86.00;;;;;;5046257;28;20043;-63
2022/06/03 11:56:45;;;;;;;3.22;1.38;;;21.20;84.70;;;;;;5046191;28;20152;-63
2022/06/03 11:59:16;;;;;;;2.30;1.45;;;21.40;83.70;;;;;;5046318;28;20041;-64
2022/06/03 12:01:49;;;;;;;2.08;1.27;;;21.50;83.10;;;;;;5027497;28;21040;-64
2022/06/03 12:04:39;;;;;;;2.50;1.67;;;21.20;83.20;;;;;;5046140;28;20405;-64
2022/06/03 12:07:35;;;;;;;4.57;1.42;;;21.00;85.50;;;;;;5046491;28;20044;-63
2022/06/03 12:10:27;;;;;;;2.50;1.30;;;20.90;85.90;;;;;;5046363;28;20033;-63
2022/06/03 12:13:17;;;;;;;1.77;1.33;;;21.00;86.50;;;;;;5041081;28;20040;-63
2022/06/03 12:15:57;;;;;;;2.75;1.23;;;21.20;83.70;;;;;;5048966;28;20448;-63
2022/06/03 12:18:32;;;;;;;3.83;1.42;;;21.30;83.20;;;;;;5049786;28;20448;-63
2022/06/03 12:21:00;;;;;;;1.65;1.27;;;21.20;86.20;;;;;;5048733;28;20087;-63
2022/06/03 12:23:26;;;;;;;8.45;1.23;;;21.30;85.70;;;;;;5028186;28;20529;-63
2022/06/03 12:25:51;;;;;;;4.25;1.20;;;21.30;84.80;;;;;;5048336;28;20036;-63
2022/06/03 12:28:27;;;;;;;5.78;1.83;;;21.50;86.30;;;;;;5048900;28;20118;-64
2022/06/03 12:31:01;;;;;;;3.70;1.23;;;21.40;83.30;;;;;;5047164;28;20044;-64
2022/06/03 12:33:58;;;;;;;4.57;1.38;;;21.20;86.70;;;;;;5041694;28;20279;-63
2022/06/03 12:36:52;;;;;;;2.90;1.53;;;21.40;84.30;;;;;;5045458;28;20049;-63
2022/06/03 12:39:18;;;;;;;1.65;1.00;;;21.30;83.80;;;;;;5047501;28;20041;-65
2022/06/03 12:41:46;;;;;;;3.05;1.52;;;21.30;85.90;;;;;;5046415;28;20083;-63
2022/06/03 12:44:36;;;;;;;2.22;1.27;;;21.40;84.10;;;;;;5047102;28;20043;-63
2022/06/03 12:47:25;;;;;;;1.88;1.60;;;21.50;83.60;;;;;;5047711;28;20045;-64
2022/06/03 12:50:14;;;;;;;3.00;1.70;;;21.50;84.00;;;;;;5029876;28;20413;-64
2022/06/03 12:52:42;;;;;;;2.53;1.67;;;21.30;85.10;;;;;;5047745;28;20136;-63
2022/06/03 12:55:30;;;;;;;3.17;1.65;;;21.40;85.20;;;;;;5048184;28;20119;-65
2022/06/03 12:58:00;;;;;;;2.25;1.20;;;21.50;87.20;;;;;;5049603;28;20052;-64
2022/06/03 13:00:48;;;;;;;2.25;1.58;;;21.60;85.30;;;;;;5047987;28;20064;-65
2022/06/03 13:03:16;;;;;;;3.67;1.90;;;21.40;85.70;;;;;;5049049;28;20048;-64
2022/06/03 13:05:50;;;;;;;5.38;1.63;;;21.30;83.50;;;;;;5048196;28;20124;-65
2022/06/03 13:08:28;;;;;;;2.20;1.35;;;21.40;85.50;;;;;;5049184;28;20036;-64
2022/06/03 13:10:57;;;;;;;2.15;1.73;;;21.60;85.60;;;;;;5048420;28;20032;-63
2022/06/03 13:13:38;;;;;;;1.20;1.10;;;21.60;86.10;;;;;;5049178;28;20052;-64
2022/06/03 13:16:20;;;;;;;3.75;1.45;;;21.80;85.30;;;;;;5048718;28;20041;-65
2022/06/03 13:18:55;;;;;;;2.60;1.33;;;21.80;86.60;;;;;;5048663;28;20037;-64
2022/06/03 13:21:24;;;;;;;3.97;1.92;;;21.90;85.50;;;;;;5048022;28;20072;-65
2022/06/03 13:23:49;;;;;;;2.55;1.50;;;21.80;83.60;;;;;;5048217;28;20128;-65
2022/06/03 13:26:25;;;;;;;5.15;2.05;;;21.80;84.80;;;;;;5029836;28;20190;-64
2022/06/03 13:28:56;;;;;;;2.42;1.60;;;22.00;85.00;;;;;;5048744;28;20120;-65
2022/06/03 13:31:23;;;;;;;2.97;1.75;;;21.90;85.50;;;;;;5046534;28;20033;-63
2022/06/03 13:34:10;;;;;;;2.65;1.63;;;21.60;88.20;;;;;;5048238;28;20049;-64
2022/06/03 13:36:35;;;;;;;;;;;21.40;86.10;;;;;;5048078;28;20037;-64
2022/06/03 13:39:04;;;;;;;7.03;1.90;;;21.20;87.70;;;;;;5048165;28;20373;-63
2022/06/03 13:45:08;;;;;;;2.55;1.50;;;20.70;88.30;;;;;;5039684;28;20037;-65
2022/06/03 13:47:49;;;;;;;3.20;1.83;;;20.60;86.60;;;;;;5014641;28;20053;-65
2022/06/03 13:50:14;;;;;;;2.58;1.60;;;20.50;88.70;;;;;;5047226;28;20120;-64
2022/06/03 13:52:46;;;;;;;4.47;1.42;;;20.50;88.10;;;;;;5046963;28;20536;-64
2022/06/03 13:55:33;;;;;;;2.53;1.63;;;20.50;88.50;;;;;;5047220;28;20040;-64
2022/06/03 13:58:10;;;;;;;3.28;1.95;;;20.60;89.60;;;;;;5047773;28;20045;-64
2022/06/03 14:00:40;;;;;;;1.98;1.75;;;20.80;89.50;;;;;;5045646;28;20056;-65
2022/06/03 14:03:14;;;;;;;6.47;1.90;;;21.00;86.40;;;;;;5047131;28;20044;-64
2022/06/03 14:06:01;;;;;;;6.80;1.52;;;21.10;91.10;;;;;;5046224;28;20041;-64
2022/06/03 14:08:35;;;;;;;;;;;21.30;86.50;;;;;;5027931;28;20096;-65
2022/06/03 14:11:04;;;;;;;3.00;1.90;;;21.20;90.10;;;;;;5047488;28;19924;-63
2022/06/03 14:13:53;;;;;;;7.38;2.17;;;21.20;88.30;;;;;;5027085;28;20043;-63
2022/06/03 14:16:30;;;;;;;3.40;1.77;;;21.10;85.50;;;;;;5028066;28;20045;-65
2022/06/03 14:19:08;;;;;;;3.45;1.40;;;21.10;87.50;;;;;;5047352;28;20052;-65
2022/06/03 14:21:53;;;;;;;2.00;1.58;;;21.20;87.50;;;;;;5046415;28;20052;-63
2022/06/03 14:24:30;;;;;;;7.47;1.90;;;21.10;88.60;;;;;;5046717;28;20033;-64
2022/06/03 14:27:04;;;;;;;2.08;1.70;;;21.20;88.40;;;;;;5046351;28;20147;-65
2022/06/03 14:30:14;;;;;;;8.10;2.50;;;21.40;87.00;;;;;;5045133;28;20094;-63
2022/06/03 14:32:51;;;;;;;1.85;1.70;;;21.40;86.60;;;;;;4981027;28;20496;-64
2022/06/03 14:35:29;;;;;;;6.95;1.88;;;21.40;87.70;;;;;;5046272;28;20052;-63
2022/06/03 14:38:37;;;;;;;2.95;1.75;;;21.40;86.90;;;;;;5045620;28;20132;-64